Time;durP1;ratioP1;P1;durP2;ratioP2;P2;SDS_P1;SDS_P2;PMS_P1;PMS_P2;Temp;Humidity;BMP_temperature;BMP_pressure;BME280_temperature;BME280_humidity;BME280_pressure;Samples;Min_cycle;Max_cycle;Signal;HPM_P1;HPM_P2
2022/11/13 00:01:11;;;;;;;53.25;37.10;;;11.10;99.90;;;;;;5029398;28;20213;-87
2022/11/13 00:04:18;;;;;;;55.75;37.45;;;11.10;99.90;;;;;;5039393;28;20216;-89
2022/11/13 00:07:27;;;;;;;50.20;34.88;;;11.10;99.90;;;;;;5057592;28;20242;-87
2022/11/13 00:10:35;;;;;;;57.38;36.45;;;11.10;99.90;;;;;;5038428;28;20218;-91
2022/11/13 00:13:42;;;;;;;54.58;35.53;;;11.10;99.90;;;;;;5048254;28;20216;-88
2022/11/13 00:16:50;;;;;;;50.75;34.83;;;11.20;99.90;;;;;;5057031;28;20704;-90
2022/11/13 00:19:57;;;;;;;47.72;33.70;;;11.10;99.90;;;;;;5048523;28;20232;-90
2022/11/13 00:23:06;;;;;;;50.28;34.70;;;11.10;99.90;;;;;;5048961;28;20339;-92
2022/11/13 00:26:15;;;;;;;48.42;32.35;;;10.90;99.90;;;;;;5052974;28;20229;-90
2022/11/13 00:29:22;;;;;;;52.83;33.47;;;11.00;99.90;;;;;;5054131;28;20229;-91
2022/11/13 00:32:30;;;;;;;47.55;32.97;;;10.90;99.90;;;;;;5042510;28;20244;-92
2022/11/13 00:35:37;;;;;;;43.92;32.08;;;11.00;99.90;;;;;;5039002;28;20213;-91
2022/11/13 00:38:46;;;;;;;46.40;31.98;;;10.90;99.90;;;;;;5045378;28;20235;-89
2022/11/13 00:41:53;;;;;;;42.60;30.67;;;10.90;99.90;;;;;;5054021;28;20259;-90
2022/11/13 00:45:00;;;;;;;45.97;31.85;;;11.00;99.90;;;;;;5066061;28;20219;-91
2022/11/13 00:48:07;;;;;;;43.15;29.90;;;10.90;99.90;;;;;;5058455;28;20225;-91
2022/11/13 00:51:15;;;;;;;47.17;31.25;;;10.90;99.90;;;;;;5030946;28;20232;-89
2022/11/13 00:54:23;;;;;;;47.20;32.42;;;10.90;99.90;;;;;;5050493;28;20224;-90
2022/11/13 00:57:30;;;;;;;46.17;32.08;;;11.00;99.90;;;;;;5056440;28;20284;-91
2022/11/13 01:00:38;;;;;;;48.00;33.20;;;10.90;99.90;;;;;;5065130;28;20224;-89
2022/11/13 01:03:46;;;;;;;51.10;32.80;;;11.00;99.90;;;;;;5039735;28;20225;-94
2022/11/13 01:06:54;;;;;;;48.13;32.63;;;11.10;99.90;;;;;;5044644;28;20261;-91
2022/11/13 01:10:03;;;;;;;49.47;34.10;;;11.20;99.90;;;;;;5029995;28;20239;-91
2022/11/13 01:13:11;;;;;;;50.65;33.60;;;11.00;99.90;;;;;;5040802;28;20227;-91
2022/11/13 01:16:22;;;;;;;47.10;32.47;;;10.90;99.90;;;;;;5049485;28;20285;-91
2022/11/13 01:19:29;;;;;;;48.97;31.95;;;11.00;99.90;;;;;;5047549;28;20228;-91
2022/11/13 01:22:36;;;;;;;46.33;31.63;;;11.00;99.90;;;;;;5039571;28;20225;-89
2022/11/13 01:25:45;;;;;;;44.90;30.33;;;11.00;99.90;;;;;;5047357;28;20254;-87
2022/11/13 01:28:52;;;;;;;49.95;31.73;;;11.00;99.90;;;;;;5053532;28;20703;-88
2022/11/13 01:32:00;;;;;;;44.65;31.58;;;11.00;99.90;;;;;;5044332;28;20224;-87
2022/11/13 01:35:08;;;;;;;47.55;31.02;;;11.10;99.90;;;;;;5056680;28;20213;-88
2022/11/13 01:38:15;;;;;;;44.67;30.10;;;11.00;99.90;;;;;;5048575;28;20224;-88
2022/11/13 01:41:25;;;;;;;46.80;30.92;;;11.10;99.90;;;;;;5055739;28;20232;-90
2022/11/13 01:44:48;;;;;;;45.35;31.13;;;11.00;99.90;;;;;;5047650;28;20214;-90
2022/11/13 01:47:55;;;;;;;45.53;31.05;;;10.90;99.90;;;;;;5048860;28;20679;-91
2022/11/13 01:51:04;;;;;;;49.47;31.33;;;10.90;99.90;;;;;;5060291;28;20220;-91
2022/11/13 01:54:17;;;;;;;46.55;30.88;;;10.80;99.90;;;;;;5043832;28;20600;-89
2022/11/13 01:57:25;;;;;;;46.05;30.02;;;10.90;99.90;;;;;;5046832;28;20645;-89
2022/11/13 02:00:32;;;;;;;46.50;30.85;;;10.90;99.90;;;;;;5050427;28;20221;-89
2022/11/13 02:03:40;;;;;;;44.45;29.60;;;11.00;99.90;;;;;;5040667;28;20243;-90
2022/11/13 02:06:51;;;;;;;49.53;30.83;;;11.00;99.90;;;;;;5043378;28;20217;-89
2022/11/13 02:10:00;;;;;;;47.72;29.75;;;10.90;99.90;;;;;;5053020;28;20237;-93
2022/11/13 02:13:09;;;;;;;49.88;31.30;;;10.90;99.90;;;;;;5046843;28;20229;-92
2022/11/13 02:16:17;;;;;;;47.30;30.52;;;10.90;99.90;;;;;;5045772;28;20224;-92
2022/11/13 02:19:29;;;;;;;47.83;31.45;;;10.80;99.90;;;;;;5044211;28;20775;-92
2022/11/13 02:22:43;;;;;;;45.47;30.15;;;10.80;99.90;;;;;;5044409;28;20221;-93
2022/11/13 02:25:54;;;;;;;46.50;29.25;;;10.90;99.90;;;;;;5059527;28;20249;-94
2022/11/13 02:29:01;;;;;;;51.58;30.67;;;10.90;99.90;;;;;;5053788;28;20227;-94
2022/11/13 02:32:09;;;;;;;44.38;29.02;;;10.70;99.90;;;;;;5064080;28;20228;-93
2022/11/13 02:35:20;;;;;;;45.75;29.35;;;10.80;99.90;;;;;;5043843;28;20216;-93
2022/11/13 02:38:27;;;;;;;43.85;29.80;;;10.80;99.90;;;;;;5049129;28;20225;-92
2022/11/13 02:41:37;;;;;;;45.42;30.17;;;10.90;99.90;;;;;;5056459;28;20719;-94
2022/11/13 02:44:44;;;;;;;45.47;29.48;;;10.90;99.90;;;;;;5046154;28;20220;-95
2022/11/13 02:47:51;;;;;;;45.85;30.13;;;10.90;99.90;;;;;;5040312;28;20723;-92
2022/11/13 02:50:58;;;;;;;46.25;29.30;;;10.80;99.90;;;;;;5051316;28;20433;-93
2022/11/13 02:54:06;;;;;;;45.95;29.05;;;10.90;99.90;;;;;;5053168;28;20244;-94
2022/11/13 02:57:15;;;;;;;46.65;28.98;;;10.90;99.90;;;;;;5033913;28;20217;-90
2022/11/13 03:00:22;;;;;;;43.90;29.13;;;10.90;99.90;;;;;;5046105;28;20255;-89
2022/11/13 03:03:29;;;;;;;47.50;29.70;;;10.90;99.90;;;;;;5063449;28;20251;-90
2022/11/13 03:06:56;;;;;;;45.20;28.10;;;10.90;99.90;;;;;;5045350;28;20221;-92
2022/11/13 03:10:05;;;;;;;46.97;29.90;;;11.00;99.90;;;;;;5040945;28;20240;-93
2022/11/13 03:13:13;;;;;;;45.90;29.42;;;11.00;99.90;;;;;;5048402;28;20221;-92
2022/11/13 03:16:20;;;;;;;44.40;29.00;;;10.90;99.90;;;;;;5042337;28;20221;-93
2022/11/13 03:19:28;;;;;;;43.35;28.17;;;11.00;99.90;;;;;;5039157;28;20729;-93
2022/11/13 03:22:35;;;;;;;46.45;29.10;;;11.00;99.90;;;;;;5042286;28;20214;-90
2022/11/13 03:25:42;;;;;;;46.45;29.15;;;11.00;99.90;;;;;;5043263;28;20208;-93
2022/11/13 03:28:51;;;;;;;49.03;29.70;;;10.90;99.90;;;;;;5042181;28;20250;-94
2022/11/13 03:31:58;;;;;;;46.17;29.30;;;11.00;99.90;;;;;;5051737;28;20235;-92
2022/11/13 03:35:06;;;;;;;48.10;30.52;;;10.90;99.90;;;;;;5056326;28;20217;-88
2022/11/13 03:38:13;;;;;;;45.33;28.95;;;10.90;99.90;;;;;;5035905;28;20220;-91
2022/11/13 03:41:22;;;;;;;48.05;29.48;;;11.00;99.90;;;;;;5039801;28;20221;-89
2022/11/13 03:44:30;;;;;;;52.13;31.05;;;10.90;99.90;;;;;;5048499;28;20224;-88
2022/11/13 03:47:38;;;;;;;47.15;29.42;;;10.90;99.90;;;;;;5048714;28;20225;-93
2022/11/13 03:50:47;;;;;;;46.58;29.20;;;11.00;99.90;;;;;;5042852;28;20229;-91
2022/11/13 03:53:54;;;;;;;44.75;29.02;;;10.90;99.90;;;;;;5055547;28;20224;-94
2022/11/13 03:57:02;;;;;;;45.78;28.88;;;10.90;99.90;;;;;;5049363;28;20220;-88
2022/11/13 04:00:13;;;;;;;49.30;29.77;;;10.80;99.90;;;;;;5046836;28;20224;-89
2022/11/13 04:03:20;;;;;;;50.22;29.58;;;11.00;99.90;;;;;;5051286;28;20220;-90
2022/11/13 04:06:28;;;;;;;42.92;27.13;;;11.00;99.90;;;;;;5057257;28;20225;-90
2022/11/13 04:09:35;;;;;;;45.75;27.63;;;10.80;99.90;;;;;;5047937;28;20212;-86
2022/11/13 04:12:42;;;;;;;43.17;27.35;;;10.80;99.90;;;;;;5060967;28;20238;-89
2022/11/13 04:15:52;;;;;;;43.78;27.15;;;10.90;99.90;;;;;;5051390;28;20284;-89
2022/11/13 04:18:59;;;;;;;40.33;26.63;;;10.90;99.90;;;;;;5048779;28;20229;-89
2022/11/13 04:22:06;;;;;;;42.90;27.08;;;10.80;99.90;;;;;;5041647;28;20217;-90
2022/11/13 04:25:14;;;;;;;42.72;26.92;;;10.90;99.90;;;;;;5034636;28;20227;-91
2022/11/13 04:28:22;;;;;;;40.65;25.55;;;10.90;99.90;;;;;;5045768;28;20694;-90
2022/11/13 04:31:30;;;;;;;42.67;26.75;;;10.90;99.90;;;;;;5049499;28;20229;-92
2022/11/13 04:34:37;;;;;;;43.63;27.65;;;10.90;99.90;;;;;;5039978;28;20221;-88
2022/11/13 04:37:44;;;;;;;41.90;25.70;;;10.80;99.90;;;;;;5043509;28;20269;-86
2022/11/13 04:42:47;;;;;;;39.70;24.92;;;10.80;99.90;;;;;;5041848;28;20732;-86
2022/11/13 04:44:18;;;;;;;41.95;25.80;;;10.70;99.90;;;;;;5038824;28;20231;-91
2022/11/13 04:47:27;;;;;;;39.75;24.58;;;10.80;99.90;;;;;;5042277;28;20304;-86
2022/11/13 04:50:35;;;;;;;40.65;24.33;;;10.70;99.90;;;;;;5028681;28;20697;-84
2022/11/13 04:53:42;;;;;;;38.35;23.35;;;10.90;99.90;;;;;;5042992;28;20659;-84
2022/11/13 04:56:49;;;;;;;39.65;24.45;;;10.90;99.90;;;;;;5045191;28;20300;-87
2022/11/13 04:59:56;;;;;;;39.78;24.10;;;11.00;99.90;;;;;;5041951;28;20604;-85
2022/11/13 05:03:05;;;;;;;36.65;23.05;;;10.90;99.90;;;;;;5032174;28;20235;-83
2022/11/13 05:06:12;;;;;;;38.95;25.23;;;10.90;99.90;;;;;;5055587;28;20766;-84
2022/11/13 05:09:19;;;;;;;40.65;24.58;;;11.00;99.90;;;;;;5050377;28;20301;-88
2022/11/13 05:12:27;;;;;;;35.58;23.40;;;10.90;99.90;;;;;;5045369;28;20219;-84
2022/11/13 05:15:34;;;;;;;35.55;23.08;;;10.90;99.90;;;;;;5043995;28;20216;-84
2022/11/13 05:18:42;;;;;;;37.10;23.02;;;10.80;99.90;;;;;;5050126;28;20220;-88
2022/11/13 05:21:49;;;;;;;36.15;23.33;;;10.90;99.90;;;;;;5046484;28;20220;-86
2022/11/13 05:24:57;;;;;;;35.30;23.50;;;10.80;99.90;;;;;;5039570;28;20228;-89
2022/11/13 05:28:04;;;;;;;37.85;23.92;;;10.80;99.90;;;;;;5044743;28;20235;-89
2022/11/13 05:31:14;;;;;;;35.17;24.35;;;10.90;99.90;;;;;;5055095;28;20211;-92
2022/11/13 05:34:23;;;;;;;38.70;24.35;;;10.90;99.90;;;;;;5046583;28;20224;-91
2022/11/13 05:37:30;;;;;;;37.80;23.60;;;11.00;99.90;;;;;;5045909;28;20232;-92
2022/11/13 05:40:37;;;;;;;38.58;24.10;;;10.90;99.90;;;;;;5045671;28;20303;-90
2022/11/13 05:43:45;;;;;;;39.75;25.23;;;10.90;99.90;;;;;;5050384;28;20221;-90
2022/11/13 05:46:52;;;;;;;37.75;23.25;;;11.00;99.90;;;;;;5048682;28;20217;-89
2022/11/13 05:50:00;;;;;;;39.17;24.35;;;11.00;99.90;;;;;;5034409;28;20287;-87
2022/11/13 05:53:07;;;;;;;35.33;22.60;;;10.90;99.90;;;;;;5044132;28;20658;-88
2022/11/13 05:56:16;;;;;;;36.58;22.90;;;10.90;99.90;;;;;;5036186;28;20217;-87
2022/11/13 05:59:23;;;;;;;37.35;22.75;;;10.80;99.90;;;;;;5038136;28;20227;-88
2022/11/13 06:02:31;;;;;;;35.45;22.58;;;10.80;99.90;;;;;;5052533;28;20320;-87
2022/11/13 06:05:39;;;;;;;37.30;23.85;;;11.00;99.90;;;;;;5062829;28;20263;-86
2022/11/13 06:08:47;;;;;;;38.95;24.00;;;10.90;99.90;;;;;;5050825;28;20219;-86
2022/11/13 06:11:54;;;;;;;36.90;23.80;;;10.90;99.90;;;;;;5050893;28;20232;-86
2022/11/13 06:15:01;;;;;;;40.38;24.40;;;10.90;99.90;;;;;;5038279;28;20228;-86
2022/11/13 06:18:08;;;;;;;37.58;23.83;;;10.90;99.90;;;;;;5041010;28;20239;-87
2022/11/13 06:21:19;;;;;;;39.20;23.15;;;11.00;99.90;;;;;;5050890;28;20277;-90
2022/11/13 06:24:26;;;;;;;36.72;22.67;;;11.10;99.90;;;;;;5049891;28;20217;-89
2022/11/13 06:27:34;;;;;;;36.80;23.17;;;11.00;99.90;;;;;;5050339;28;20228;-85
2022/11/13 06:30:40;;;;;;;34.72;22.25;;;11.00;99.90;;;;;;5048898;28;20248;-86
2022/11/13 06:33:48;;;;;;;38.25;22.27;;;11.00;99.90;;;;;;5050020;28;20221;-84
2022/11/13 06:36:56;;;;;;;33.85;21.13;;;11.00;99.90;;;;;;5044956;28;20233;-85
2022/11/13 06:40:03;;;;;;;33.78;21.30;;;10.90;99.90;;;;;;5040659;28;20247;-84
2022/11/13 06:43:11;;;;;;;30.73;19.23;;;11.00;99.90;;;;;;5039550;28;21042;-84
2022/11/13 06:46:19;;;;;;;31.70;19.90;;;11.00;99.90;;;;;;5037962;28;20327;-87
2022/11/13 06:49:26;;;;;;;32.55;20.60;;;10.90;99.90;;;;;;5036727;28;20227;-86
2022/11/13 06:52:35;;;;;;;30.95;19.92;;;10.90;99.90;;;;;;5038135;28;20643;-85
2022/11/13 06:55:44;;;;;;;35.70;21.15;;;10.90;99.90;;;;;;5041065;28;20216;-85
2022/11/13 06:58:52;;;;;;;32.75;20.45;;;10.80;99.90;;;;;;5035198;28;20316;-84
2022/11/13 07:01:58;;;;;;;33.00;20.23;;;10.80;99.90;;;;;;5045833;28;20695;-85
2022/11/13 07:05:06;;;;;;;30.63;19.70;;;10.90;99.90;;;;;;5035924;28;20284;-85
2022/11/13 07:08:15;;;;;;;32.97;20.48;;;11.00;99.90;;;;;;5041665;28;20229;-84
2022/11/13 07:11:23;;;;;;;31.98;20.50;;;11.00;99.90;;;;;;5048072;28;20588;-84
2022/11/13 07:14:30;;;;;;;31.45;19.92;;;11.10;99.90;;;;;;5032805;28;20324;-86
2022/11/13 07:17:37;;;;;;;29.75;19.17;;;11.10;99.90;;;;;;5036515;28;20221;-86
2022/11/13 07:20:45;;;;;;;29.65;18.02;;;11.10;99.90;;;;;;5047677;28;20324;-87
2022/11/13 07:23:54;;;;;;;26.55;17.75;;;10.90;99.90;;;;;;5053000;28;20225;-86
2022/11/13 07:27:01;;;;;;;27.15;17.70;;;10.80;99.90;;;;;;5045940;28;20315;-87
2022/11/13 07:30:09;;;;;;;27.35;18.33;;;10.90;99.90;;;;;;5049323;28;20248;-88
2022/11/13 07:33:16;;;;;;;29.92;18.45;;;10.90;99.90;;;;;;5036967;28;20233;-86
2022/11/13 07:36:24;;;;;;;27.67;17.73;;;10.90;99.90;;;;;;5042580;28;20608;-88
2022/11/13 07:39:33;;;;;;;23.35;15.80;;;10.90;99.90;;;;;;5037094;28;20299;-90
2022/11/13 07:42:40;;;;;;;24.98;16.98;;;10.90;99.90;;;;;;5037432;28;20678;-86
2022/11/13 07:45:53;;;;;;;25.30;16.98;;;10.90;99.90;;;;;;5043709;28;20224;-86
2022/11/13 07:49:01;;;;;;;29.98;19.10;;;10.90;99.90;;;;;;5018153;28;20226;-87
2022/11/13 07:52:08;;;;;;;37.83;22.20;;;10.80;99.90;;;;;;5048494;28;20265;-85
2022/11/13 07:55:17;;;;;;;36.00;21.20;;;10.80;99.90;;;;;;5051157;28;20239;-88
2022/11/13 07:58:27;;;;;;;35.03;22.10;;;10.80;99.90;;;;;;5046971;28;20217;-89
2022/11/13 08:01:34;;;;;;;39.65;22.15;;;10.70;99.90;;;;;;5061100;28;20216;-85
2022/11/13 08:04:42;;;;;;;34.83;21.65;;;10.70;99.90;;;;;;5050273;28;20248;-87
2022/11/13 08:07:49;;;;;;;41.15;20.80;;;10.60;99.90;;;;;;5021993;28;20256;-86
2022/11/13 08:10:59;;;;;;;38.63;20.77;;;10.60;99.90;;;;;;5048558;28;20240;-88
2022/11/13 08:14:06;;;;;;;32.20;19.35;;;10.60;99.90;;;;;;5046943;28;20448;-88
2022/11/13 08:17:13;;;;;;;32.67;19.40;;;10.70;99.90;;;;;;5044960;28;20223;-87
2022/11/13 08:20:20;;;;;;;31.67;18.40;;;10.60;99.90;;;;;;5037407;28;20587;-89
2022/11/13 08:23:28;;;;;;;35.97;20.23;;;10.60;99.90;;;;;;5045039;28;20220;-90
2022/11/13 08:26:39;;;;;;;33.15;18.15;;;10.60;99.90;;;;;;5042765;28;20327;-89
2022/11/13 08:29:46;;;;;;;32.53;18.58;;;10.60;99.90;;;;;;5048797;28;20216;-91
2022/11/13 08:32:54;;;;;;;28.65;17.35;;;10.60;99.90;;;;;;5035687;28;20222;-91
2022/11/13 08:36:01;;;;;;;27.67;16.67;;;10.60;99.90;;;;;;5034656;28;20220;-89
2022/11/13 08:39:09;;;;;;;25.65;16.27;;;10.70;99.90;;;;;;5040761;28;20228;-88
2022/11/13 08:42:18;;;;;;;27.95;15.73;;;10.70;99.90;;;;;;5057560;28;20271;-89
2022/11/13 08:45:25;;;;;;;27.77;16.27;;;10.70;99.90;;;;;;5055055;28;20218;-89
2022/11/13 08:48:32;;;;;;;27.10;14.43;;;10.80;99.90;;;;;;5049167;28;20261;-88
2022/11/13 08:51:39;;;;;;;24.50;14.07;;;10.70;99.90;;;;;;5032119;28;20290;-87
2022/11/13 08:54:46;;;;;;;25.98;14.73;;;10.60;99.90;;;;;;5047090;28;20216;-89
2022/11/13 08:57:57;;;;;;;22.25;13.18;;;10.70;99.90;;;;;;5047516;28;20232;-91
2022/11/13 09:01:05;;;;;;;20.95;13.63;;;10.80;99.90;;;;;;5040786;28;20731;-86
2022/11/13 09:04:12;;;;;;;22.15;12.98;;;10.90;99.90;;;;;;5035290;28;20802;-84
2022/11/13 09:07:19;;;;;;;20.85;12.13;;;10.80;99.90;;;;;;5043263;28;20269;-84
2022/11/13 09:10:33;;;;;;;16.52;10.57;;;10.90;99.90;;;;;;5045005;28;20405;-86
2022/11/13 09:13:43;;;;;;;15.82;9.70;;;10.90;99.90;;;;;;5037976;28;20868;-82
2022/11/13 09:16:55;;;;;;;14.15;9.43;;;10.90;99.90;;;;;;5047084;28;20235;-85
2022/11/13 09:20:03;;;;;;;13.05;8.85;;;11.10;99.90;;;;;;5031180;28;20221;-83
2022/11/13 09:23:14;;;;;;;17.17;9.82;;;11.10;99.90;;;;;;5034360;28;20213;-95
2022/11/13 09:26:22;;;;;;;14.85;9.35;;;11.20;99.90;;;;;;5043522;28;20263;-88
2022/11/13 09:29:31;;;;;;;16.90;10.25;;;11.20;99.90;;;;;;5043223;28;20220;-90
2022/11/13 09:32:38;;;;;;;19.05;10.77;;;11.00;99.90;;;;;;5032581;28;20252;-87
2022/11/13 09:35:45;;;;;;;14.98;9.75;;;11.10;99.90;;;;;;5053582;28;20377;-89
2022/11/13 09:38:52;;;;;;;15.85;9.23;;;10.90;99.90;;;;;;5040194;28;20302;-89
2022/11/13 09:42:12;;;;;;;16.50;9.88;;;10.80;99.90;;;;;;5045482;28;20293;-88
2022/11/13 09:45:21;;;;;;;15.82;9.35;;;10.90;99.90;;;;;;5043509;28;20228;-88
2022/11/13 09:48:33;;;;;;;18.08;10.60;;;10.90;99.90;;;;;;5044738;28;20308;-86
2022/11/13 09:51:41;;;;;;;19.52;11.95;;;11.00;99.90;;;;;;5041452;28;20710;-89
2022/11/13 09:54:48;;;;;;;20.77;12.32;;;11.10;99.90;;;;;;5035935;28;20233;-91
2022/11/13 09:58:02;;;;;;;21.05;12.02;;;11.10;99.90;;;;;;5047145;28;20228;-89
2022/11/13 10:01:17;;;;;;;18.70;11.05;;;11.10;99.90;;;;;;5044762;28;20236;-90
2022/11/13 10:04:31;;;;;;;16.13;11.05;;;11.20;99.90;;;;;;5037055;28;21683;-89
2022/11/13 10:07:47;;;;;;;17.10;10.73;;;11.10;99.90;;;;;;5041190;28;20304;-89
2022/11/13 10:11:02;;;;;;;19.17;10.82;;;11.10;99.90;;;;;;5037996;28;20232;-91
2022/11/13 10:14:15;;;;;;;23.35;13.00;;;11.10;99.90;;;;;;5040191;28;20279;-90
2022/11/13 10:17:28;;;;;;;23.67;13.63;;;11.10;99.90;;;;;;5041131;28;20232;-90
2022/11/13 10:20:41;;;;;;;25.13;14.15;;;11.20;99.90;;;;;;5051192;28;20240;-87
2022/11/13 10:23:56;;;;;;;26.15;15.23;;;11.20;99.90;;;;;;5037791;28;20228;-85
2022/11/13 10:27:08;;;;;;;23.13;14.50;;;11.20;99.90;;;;;;5043878;28;20453;-86
2022/11/13 10:30:18;;;;;;;21.42;13.88;;;11.10;99.90;;;;;;5036932;28;20642;-85
2022/11/13 10:33:26;;;;;;;22.50;13.15;;;11.00;99.90;;;;;;5045606;28;20702;-91
2022/11/13 10:36:42;;;;;;;21.45;13.20;;;11.00;99.90;;;;;;5049719;28;20296;-85
2022/11/13 10:39:49;;;;;;;23.77;13.38;;;11.00;99.90;;;;;;5050191;28;20236;-86
2022/11/13 10:43:06;;;;;;;21.63;13.25;;;11.10;99.90;;;;;;5039324;28;20251;-86
2022/11/13 10:46:19;;;;;;;17.83;11.75;;;11.10;99.90;;;;;;5035675;28;20241;-89
2022/11/13 10:49:28;;;;;;;21.50;12.85;;;11.10;99.90;;;;;;5038610;28;20224;-86
2022/11/13 10:52:44;;;;;;;18.55;11.52;;;11.20;99.90;;;;;;5041959;28;20715;-88
2022/11/13 10:55:56;;;;;;;17.33;11.13;;;11.30;99.90;;;;;;5038429;28;20827;-86
2022/11/13 10:59:10;;;;;;;17.88;10.75;;;11.30;99.90;;;;;;5040023;28;20216;-87
2022/11/13 11:02:19;;;;;;;19.05;11.20;;;11.30;99.90;;;;;;5040905;28;20228;-86
2022/11/13 11:05:29;;;;;;;19.77;11.98;;;11.30;99.90;;;;;;5040391;28;20217;-87
2022/11/13 11:08:36;;;;;;;20.23;11.90;;;11.30;99.90;;;;;;5037914;28;20907;-85
2022/11/13 11:12:18;;;;;;;18.42;11.80;;;11.50;99.90;;;;;;5037523;28;20221;-87
2022/11/13 11:15:42;;;;;;;18.77;12.23;;;11.40;99.90;;;;;;5036613;28;20650;-84
2022/11/13 11:18:57;;;;;;;22.08;12.77;;;11.30;99.90;;;;;;5043312;28;20216;-84
2022/11/13 11:22:13;;;;;;;19.50;12.00;;;11.30;99.90;;;;;;5029786;28;20254;-85
2022/11/13 11:25:29;;;;;;;22.77;12.98;;;11.20;99.90;;;;;;5028482;28;20230;-88
2022/11/13 11:28:43;;;;;;;20.63;12.73;;;11.20;99.90;;;;;;5032912;28;20746;-82
2022/11/13 11:31:55;;;;;;;24.38;14.30;;;11.20;99.90;;;;;;5034476;28;20913;-93
2022/11/13 11:35:13;;;;;;;23.08;13.57;;;11.30;99.90;;;;;;5045019;28;20216;-91
2022/11/13 11:38:31;;;;;;;21.20;13.75;;;11.30;99.90;;;;;;5038033;28;20226;-90
2022/11/13 11:41:43;;;;;;;23.42;14.10;;;11.40;99.90;;;;;;5039538;28;20309;-88
2022/11/13 11:45:01;;;;;;;24.33;15.25;;;11.40;99.90;;;;;;5035582;28;20217;-86
2022/11/13 13:10:52;;;;;;;32.75;19.27;;;11.60;99.90;;;;;;5060010;27;20606;-78
2022/11/13 13:14:20;;;;;;;33.45;19.88;;;11.60;99.90;;;;;;5068298;28;20303;-76
2022/11/13 13:17:27;;;;;;;31.30;18.63;;;11.50;99.90;;;;;;5081607;28;20223;-77
2022/11/13 13:20:38;;;;;;;34.05;18.98;;;11.60;99.90;;;;;;5097167;28;20690;-76
2022/11/13 13:23:47;;;;;;;31.73;20.90;;;11.60;99.90;;;;;;5098406;28;20233;-78
2022/11/13 13:26:56;;;;;;;31.98;20.25;;;11.60;99.90;;;;;;5091208;28;20223;-79
2022/11/13 13:30:16;;;;;;;33.58;21.13;;;11.70;99.90;;;;;;5092605;28;20231;-76
2022/11/13 13:33:30;;;;;;;28.85;19.63;;;11.70;99.90;;;;;;5094023;28;20687;-75
2022/11/13 13:36:42;;;;;;;31.08;19.83;;;11.70;99.90;;;;;;5091193;28;20292;-79
2022/11/13 13:39:58;;;;;;;30.83;20.73;;;11.70;99.90;;;;;;5099740;28;20227;-77
2022/11/13 13:43:28;;;;;;;30.42;20.27;;;11.70;99.90;;;;;;5082870;28;20250;-76
2022/11/13 13:46:35;;;;;;;32.95;20.80;;;11.60;99.90;;;;;;5095379;28;20207;-77
2022/11/13 13:49:43;;;;;;;32.72;22.30;;;11.70;99.90;;;;;;5086137;28;20323;-76
2022/11/13 13:52:51;;;;;;;36.28;22.80;;;11.60;99.90;;;;;;5099377;28;20268;-77
2022/11/13 13:56:03;;;;;;;37.55;21.67;;;11.70;99.90;;;;;;5094761;28;20226;-77
2022/11/13 13:59:18;;;;;;;33.53;21.90;;;11.80;99.90;;;;;;5097098;28;20222;-78
2022/11/13 14:02:25;;;;;;;29.92;21.35;;;11.90;99.90;;;;;;5093624;28;20227;-78
2022/11/13 14:05:35;;;;;;;30.67;19.45;;;11.80;99.90;;;;;;5095844;28;20224;-76
2022/11/13 14:08:42;;;;;;;31.70;19.83;;;11.70;99.90;;;;;;5105113;28;20265;-77
2022/11/13 14:11:56;;;;;;;29.45;19.65;;;11.70;99.90;;;;;;5094913;28;20223;-77
2022/11/13 14:15:23;;;;;;;28.13;18.00;;;11.80;99.90;;;;;;5103711;28;20253;-74
2022/11/13 14:18:31;;;;;;;28.23;17.38;;;11.60;99.90;;;;;;5088088;28;20287;-76
2022/11/13 14:21:38;;;;;;;26.08;17.85;;;11.60;99.90;;;;;;5084281;28;20222;-75
2022/11/13 14:24:50;;;;;;;27.85;18.55;;;11.70;99.90;;;;;;5075415;28;20222;-74
2022/11/13 14:27:57;;;;;;;27.73;18.63;;;11.70;99.90;;;;;;5078230;28;20235;-76
2022/11/13 14:31:08;;;;;;;26.83;17.55;;;11.80;99.90;;;;;;5080318;28;20223;-74
2022/11/13 14:34:21;;;;;;;25.17;16.25;;;11.70;99.90;;;;;;5073567;28;20223;-75
2022/11/13 14:37:32;;;;;;;21.23;15.07;;;11.70;99.90;;;;;;5078529;28;20547;-76
2022/11/13 14:40:40;;;;;;;22.52;15.40;;;11.50;99.90;;;;;;5075211;28;20486;-75
2022/11/13 14:43:50;;;;;;;25.70;16.70;;;11.50;99.90;;;;;;5078589;28;20269;-75
2022/11/13 14:47:03;;;;;;;23.70;16.75;;;11.60;99.90;;;;;;5081193;28;20754;-76
2022/11/13 14:50:21;;;;;;;27.02;16.73;;;11.50;99.90;;;;;;5078882;28;20236;-74
2022/11/13 14:53:31;;;;;;;23.65;15.30;;;11.50;99.90;;;;;;5080340;28;20231;-74
2022/11/13 14:56:41;;;;;;;26.80;15.80;;;11.40;99.90;;;;;;5082463;28;20291;-73
2022/11/13 14:59:49;;;;;;;23.08;16.42;;;11.40;99.90;;;;;;5068448;28;20235;-74
2022/11/13 15:02:58;;;;;;;26.40;17.13;;;11.50;99.90;;;;;;5066772;28;20231;-76
2022/11/13 15:06:12;;;;;;;26.73;16.92;;;11.40;99.90;;;;;;5069720;28;20314;-81
2022/11/13 15:09:19;;;;;;;29.77;18.50;;;11.40;99.90;;;;;;5071905;28;20619;-76
2022/11/13 15:12:26;;;;;;;28.00;19.40;;;11.60;99.90;;;;;;5068969;28;20694;-75
2022/11/13 15:15:33;;;;;;;30.45;19.48;;;11.40;99.90;;;;;;5069808;28;20656;-75
2022/11/13 15:18:46;;;;;;;31.35;19.38;;;11.40;99.90;;;;;;5076528;28;20322;-72
2022/11/13 15:21:55;;;;;;;33.65;19.73;;;11.30;99.90;;;;;;5074636;28;20903;-71
2022/11/13 15:25:24;;;;;;;33.80;20.90;;;11.40;99.90;;;;;;5077508;28;20237;-73
2022/11/13 15:28:31;;;;;;;34.25;22.13;;;11.30;99.90;;;;;;5073246;28;20215;-73
2022/11/13 15:31:41;;;;;;;35.92;20.10;;;11.30;99.90;;;;;;5076609;28;20242;-73
2022/11/13 15:34:53;;;;;;;33.58;21.33;;;11.30;99.90;;;;;;5072197;28;20215;-75
2022/11/13 15:38:01;;;;;;;34.70;19.48;;;11.30;99.90;;;;;;5087372;28;20717;-74
2022/11/13 15:41:12;;;;;;;32.25;19.58;;;11.30;99.90;;;;;;5080003;28;20215;-76
2022/11/13 15:44:19;;;;;;;37.10;18.90;;;11.30;99.90;;;;;;5079600;28;20230;-76
2022/11/13 15:47:29;;;;;;;30.25;19.13;;;11.20;99.90;;;;;;5078686;28;20758;-77
2022/11/13 15:50:37;;;;;;;32.60;19.30;;;11.30;99.90;;;;;;5079860;28;20231;-77
2022/11/13 15:53:45;;;;;;;30.65;18.33;;;11.30;99.90;;;;;;5080320;28;20216;-76
2022/11/13 15:56:51;;;;;;;30.63;19.30;;;11.30;99.90;;;;;;5084241;28;20322;-77
2022/11/13 15:59:58;;;;;;;32.65;18.85;;;11.30;99.90;;;;;;5085264;28;20222;-75
2022/11/13 16:03:10;;;;;;;30.20;18.70;;;11.30;99.90;;;;;;5080538;28;20219;-77
2022/11/13 16:06:22;;;;;;;28.98;18.17;;;11.30;99.90;;;;;;5075563;28;20223;-78
2022/11/13 16:09:30;;;;;;;26.25;17.35;;;11.30;99.90;;;;;;5070724;28;20334;-77
2022/11/13 16:12:37;;;;;;;28.63;18.05;;;11.40;99.90;;;;;;5077186;28;20255;-77
2022/11/13 16:15:45;;;;;;;28.63;18.15;;;11.30;99.90;;;;;;5077537;28;20589;-77
2022/11/13 16:18:53;;;;;;;29.60;17.55;;;11.30;99.90;;;;;;5080626;28;20227;-77
2022/11/13 16:22:17;;;;;;;27.52;17.65;;;11.30;99.90;;;;;;5086020;28;20215;-78
2022/11/13 16:25:25;;;;;;;32.42;17.95;;;11.40;99.90;;;;;;5052939;28;20878;-77
2022/11/13 16:28:32;;;;;;;27.02;17.60;;;11.50;99.90;;;;;;5075009;28;20207;-75
2022/11/13 16:31:58;;;;;;;31.88;18.60;;;11.30;99.90;;;;;;5075867;28;20391;-76
2022/11/13 16:35:06;;;;;;;30.92;18.08;;;11.30;99.90;;;;;;5077228;28;20328;-77
2022/11/13 16:38:15;;;;;;;36.00;19.92;;;11.20;99.90;;;;;;5072271;28;20639;-77
2022/11/13 16:41:22;;;;;;;36.42;20.40;;;11.30;99.90;;;;;;5071877;28;20306;-76
2022/11/13 16:44:33;;;;;;;31.35;18.08;;;11.30;99.90;;;;;;5056986;28;20237;-76
2022/11/13 16:47:40;;;;;;;38.78;20.98;;;11.30;99.90;;;;;;5055069;28;20231;-76
2022/11/13 16:50:47;;;;;;;33.67;19.55;;;11.30;99.90;;;;;;5054222;28;20248;-75
2022/11/13 16:53:56;;;;;;;35.42;19.40;;;11.40;99.90;;;;;;5045855;28;20243;-77
2022/11/13 16:57:03;;;;;;;34.80;19.75;;;11.30;99.90;;;;;;5071738;28;20737;-75
2022/11/13 17:00:14;;;;;;;35.00;20.33;;;11.30;99.90;;;;;;5070330;28;20211;-75
2022/11/13 17:03:22;;;;;;;35.13;21.30;;;11.30;99.90;;;;;;5074022;28;20238;-75
2022/11/13 17:06:31;;;;;;;37.42;22.17;;;11.20;99.90;;;;;;5073855;28;20227;-76
2022/11/13 17:09:41;;;;;;;42.35;22.88;;;11.20;99.90;;;;;;5077456;28;20374;-77
2022/11/13 17:12:51;;;;;;;42.40;23.83;;;11.30;99.90;;;;;;5074839;28;20215;-75
2022/11/13 17:16:00;;;;;;;42.47;23.98;;;11.30;99.90;;;;;;5072751;28;20226;-77
2022/11/13 17:19:11;;;;;;;47.33;25.52;;;11.30;99.90;;;;;;5072700;28;20215;-77
2022/11/13 17:22:18;;;;;;;42.80;24.25;;;11.20;99.90;;;;;;5073524;28;20334;-77
2022/11/13 17:25:27;;;;;;;51.63;26.63;;;11.20;99.90;;;;;;5049512;28;21118;-78